sensor_id;sensor_type;location;lat;lon;timestamp;temperature;humidity
8539;DHT22;4307;53.868;11.680;2023-02-20T00:01:24;5.30;99.90
8539;DHT22;4307;53.868;11.680;2023-02-20T00:03:51;5.30;99.90
8539;DHT22;4307;53.868;11.680;2023-02-20T00:06:18;5.30;99.90
8539;DHT22;4307;53.868;11.680;2023-02-20T00:08:44;5.40;99.90
8539;DHT22;4307;53.868;11.680;2023-02-20T00:11:12;5.30;99.90
8539;DHT22;4307;53.868;11.680;2023-02-20T00:13:44;5.40;99.90
8539;DHT22;4307;53.868;11.680;2023-02-20T00:16:10;5.40;99.90
8539;DHT22;4307;53.868;11.680;2023-02-20T00:18:37;5.40;99.90
8539;DHT22;4307;53.868;11.680;2023-02-20T00:21:04;5.30;99.90
8539;DHT22;4307;53.868;11.680;2023-02-20T00:23:31;5.30;99.90
8539;DHT22;4307;53.868;11.680;2023-02-20T00:25:58;5.30;99.90
8539;DHT22;4307;53.868;11.680;2023-02-20T00:28:26;5.30;99.90
8539;DHT22;4307;53.868;11.680;2023-02-20T00:30:54;5.30;99.90
8539;DHT22;4307;53.868;11.680;2023-02-20T00:33:21;5.30;99.90
8539;DHT22;4307;53.868;11.680;2023-02-20T00:35:47;5.30;99.90
8539;DHT22;4307;53.868;11.680;2023-02-20T00:38:14;5.30;99.90
8539;DHT22;4307;53.868;11.680;2023-02-20T00:40:41;5.30;99.90
8539;DHT22;4307;53.868;11.680;2023-02-20T00:43:08;5.30;99.90
8539;DHT22;4307;53.868;11.680;2023-02-20T00:45:36;5.30;99.90
8539;DHT22;4307;53.868;11.680;2023-02-20T00:48:03;5.30;99.90
8539;DHT22;4307;53.868;11.680;2023-02-20T00:50:30;5.30;99.90
8539;DHT22;4307;53.868;11.680;2023-02-20T00:52:56;5.20;99.90
8539;DHT22;4307;53.868;11.680;2023-02-20T00:55:23;5.10;99.90
8539;DHT22;4307;53.868;11.680;2023-02-20T00:57:49;5.10;99.90
8539;DHT22;4307;53.868;11.680;2023-02-20T01:00:19;5.10;99.90
8539;DHT22;4307;53.868;11.680;2023-02-20T01:02:47;5.10;99.90
8539;DHT22;4307;53.868;11.680;2023-02-20T01:05:14;5.10;99.90
8539;DHT22;4307;53.868;11.680;2023-02-20T01:07:41;5.00;99.90
8539;DHT22;4307;53.868;11.680;2023-02-20T01:10:08;5.00;99.90
8539;DHT22;4307;53.868;11.680;2023-02-20T01:12:35;5.00;99.90
8539;DHT22;4307;53.868;11.680;2023-02-20T01:15:02;5.00;99.90
8539;DHT22;4307;53.868;11.680;2023-02-20T01:17:29;5.00;99.90
8539;DHT22;4307;53.868;11.680;2023-02-20T01:19:57;5.00;99.90
8539;DHT22;4307;53.868;11.680;2023-02-20T01:22:24;5.00;99.90
8539;DHT22;4307;53.868;11.680;2023-02-20T01:24:51;5.00;99.90
8539;DHT22;4307;53.868;11.680;2023-02-20T01:27:17;5.10;99.90
8539;DHT22;4307;53.868;11.680;2023-02-20T01:29:44;5.10;99.90
8539;DHT22;4307;53.868;11.680;2023-02-20T01:32:11;5.10;99.90
8539;DHT22;4307;53.868;11.680;2023-02-20T01:34:38;5.10;99.90
8539;DHT22;4307;53.868;11.680;2023-02-20T01:37:06;5.10;99.90
8539;DHT22;4307;53.868;11.680;2023-02-20T01:39:33;5.20;99.90
8539;DHT22;4307;53.868;11.680;2023-02-20T01:42:01;5.20;99.90
8539;DHT22;4307;53.868;11.680;2023-02-20T01:44:31;5.20;99.90
8539;DHT22;4307;53.868;11.680;2023-02-20T01:46:58;5.30;99.90
8539;DHT22;4307;53.868;11.680;2023-02-20T01:49:31;5.30;99.90
8539;DHT22;4307;53.868;11.680;2023-02-20T01:52:08;5.30;99.90
8539;DHT22;4307;53.868;11.680;2023-02-20T01:54:37;5.40;99.90
8539;DHT22;4307;53.868;11.680;2023-02-20T01:57:06;5.40;99.90
8539;DHT22;4307;53.868;11.680;2023-02-20T01:59:37;5.40;99.90
8539;DHT22;4307;53.868;11.680;2023-02-20T02:02:05;5.50;99.90
8539;DHT22;4307;53.868;11.680;2023-02-20T02:04:33;5.50;99.90
8539;DHT22;4307;53.868;11.680;2023-02-20T02:07:01;5.50;99.90
8539;DHT22;4307;53.868;11.680;2023-02-20T02:09:36;5.50;99.90
8539;DHT22;4307;53.868;11.680;2023-02-20T02:12:04;5.50;99.90
8539;DHT22;4307;53.868;11.680;2023-02-20T02:14:31;5.60;99.90
8539;DHT22;4307;53.868;11.680;2023-02-20T02:17:11;5.60;99.90
8539;DHT22;4307;53.868;11.680;2023-02-20T02:23:12;5.60;99.90
8539;DHT22;4307;53.868;11.680;2023-02-20T02:25:46;5.60;99.90
8539;DHT22;4307;53.868;11.680;2023-02-20T02:31:38;5.70;99.90
8539;DHT22;4307;53.868;11.680;2023-02-20T02:34:31;5.70;99.90
8539;DHT22;4307;53.868;11.680;2023-02-20T02:37:08;5.70;99.90
8539;DHT22;4307;53.868;11.680;2023-02-20T02:39:42;5.70;99.90
8539;DHT22;4307;53.868;11.680;2023-02-20T02:42:15;5.80;99.90
8539;DHT22;4307;53.868;11.680;2023-02-20T02:44:46;5.80;99.90
8539;DHT22;4307;53.868;11.680;2023-02-20T02:47:21;5.90;99.90
8539;DHT22;4307;53.868;11.680;2023-02-20T02:49:55;5.90;99.90
8539;DHT22;4307;53.868;11.680;2023-02-20T02:52:26;6.00;99.90
8539;DHT22;4307;53.868;11.680;2023-02-20T02:55:15;6.00;99.90
8539;DHT22;4307;53.868;11.680;2023-02-20T02:57:42;6.00;99.90
8539;DHT22;4307;53.868;11.680;2023-02-20T03:00:11;6.00;99.90
8539;DHT22;4307;53.868;11.680;2023-02-20T03:02:43;6.10;99.90
8539;DHT22;4307;53.868;11.680;2023-02-20T03:05:14;6.10;99.90
8539;DHT22;4307;53.868;11.680;2023-02-20T03:07:46;6.10;99.90
8539;DHT22;4307;53.868;11.680;2023-02-20T03:10:17;6.20;99.90
8539;DHT22;4307;53.868;11.680;2023-02-20T03:12:48;6.20;99.90
8539;DHT22;4307;53.868;11.680;2023-02-20T03:15:21;6.20;99.90
8539;DHT22;4307;53.868;11.680;2023-02-20T03:18:08;6.20;99.90
8539;DHT22;4307;53.868;11.680;2023-02-20T03:20:39;6.20;99.90
8539;DHT22;4307;53.868;11.680;2023-02-20T03:23:10;6.20;99.90
8539;DHT22;4307;53.868;11.680;2023-02-20T03:25:41;6.20;99.90
8539;DHT22;4307;53.868;11.680;2023-02-20T03:28:16;6.30;99.90
8539;DHT22;4307;53.868;11.680;2023-02-20T03:30:48;6.30;99.90
8539;DHT22;4307;53.868;11.680;2023-02-20T03:33:19;6.30;99.90
8539;DHT22;4307;53.868;11.680;2023-02-20T03:36:07;6.30;99.90
8539;DHT22;4307;53.868;11.680;2023-02-20T03:38:58;6.30;99.90
8539;DHT22;4307;53.868;11.680;2023-02-20T03:41:44;6.30;99.90
8539;DHT22;4307;53.868;11.680;2023-02-20T03:44:31;6.30;99.90
8539;DHT22;4307;53.868;11.680;2023-02-20T03:47:00;6.30;99.90
8539;DHT22;4307;53.868;11.680;2023-02-20T03:49:30;6.30;99.90
8539;DHT22;4307;53.868;11.680;2023-02-20T03:51:59;6.30;99.90
8539;DHT22;4307;53.868;11.680;2023-02-20T03:54:28;6.40;99.90
8539;DHT22;4307;53.868;11.680;2023-02-20T03:56:56;6.40;99.90
8539;DHT22;4307;53.868;11.680;2023-02-20T03:59:28;6.40;99.90
8539;DHT22;4307;53.868;11.680;2023-02-20T04:01:59;6.40;99.90
8539;DHT22;4307;53.868;11.680;2023-02-20T04:04:29;6.40;99.90
8539;DHT22;4307;53.868;11.680;2023-02-20T04:06:59;6.40;99.90
8539;DHT22;4307;53.868;11.680;2023-02-20T04:09:31;6.50;99.90
8539;DHT22;4307;53.868;11.680;2023-02-20T04:12:03;6.50;99.90
8539;DHT22;4307;53.868;11.680;2023-02-20T04:14:32;6.50;99.90
8539;DHT22;4307;53.868;11.680;2023-02-20T04:17:02;6.50;99.90
8539;DHT22;4307;53.868;11.680;2023-02-20T04:19:32;6.50;99.90
8539;DHT22;4307;53.868;11.680;2023-02-20T04:22:01;6.50;99.90
8539;DHT22;4307;53.868;11.680;2023-02-20T04:24:33;6.40;99.90
8539;DHT22;4307;53.868;11.680;2023-02-20T04:27:02;6.50;99.90
8539;DHT22;4307;53.868;11.680;2023-02-20T04:29:29;6.40;99.90
8539;DHT22;4307;53.868;11.680;2023-02-20T04:31:56;6.40;99.90
8539;DHT22;4307;53.868;11.680;2023-02-20T04:34:23;6.40;99.90
8539;DHT22;4307;53.868;11.680;2023-02-20T04:36:51;6.40;99.90
8539;DHT22;4307;53.868;11.680;2023-02-20T04:39:19;6.30;99.90
8539;DHT22;4307;53.868;11.680;2023-02-20T04:41:48;6.30;99.90
8539;DHT22;4307;53.868;11.680;2023-02-20T04:44:14;6.30;99.90
8539;DHT22;4307;53.868;11.680;2023-02-20T04:46:56;6.30;99.90
8539;DHT22;4307;53.868;11.680;2023-02-20T04:49:23;6.40;99.90
8539;DHT22;4307;53.868;11.680;2023-02-20T04:51:50;6.30;99.90
8539;DHT22;4307;53.868;11.680;2023-02-20T04:54:17;6.30;99.90
8539;DHT22;4307;53.868;11.680;2023-02-20T04:56:43;6.40;99.90
8539;DHT22;4307;53.868;11.680;2023-02-20T04:59:12;6.40;99.90
8539;DHT22;4307;53.868;11.680;2023-02-20T05:01:39;6.40;99.90
8539;DHT22;4307;53.868;11.680;2023-02-20T05:04:06;6.40;99.90
8539;DHT22;4307;53.868;11.680;2023-02-20T05:06:32;6.40;99.90
8539;DHT22;4307;53.868;11.680;2023-02-20T05:08:59;6.40;99.90
8539;DHT22;4307;53.868;11.680;2023-02-20T05:11:26;6.40;99.90
8539;DHT22;4307;53.868;11.680;2023-02-20T05:13:52;6.40;99.90
8539;DHT22;4307;53.868;11.680;2023-02-20T05:16:20;6.40;99.90
8539;DHT22;4307;53.868;11.680;2023-02-20T05:18:47;6.40;99.90
8539;DHT22;4307;53.868;11.680;2023-02-20T05:21:14;6.50;99.90
8539;DHT22;4307;53.868;11.680;2023-02-20T05:23:58;6.50;99.90
8539;DHT22;4307;53.868;11.680;2023-02-20T05:26:24;6.50;99.90
8539;DHT22;4307;53.868;11.680;2023-02-20T05:28:51;6.60;99.90
8539;DHT22;4307;53.868;11.680;2023-02-20T05:31:19;6.60;99.90
8539;DHT22;4307;53.868;11.680;2023-02-20T05:33:46;6.60;99.90
8539;DHT22;4307;53.868;11.680;2023-02-20T05:36:12;6.60;99.90
8539;DHT22;4307;53.868;11.680;2023-02-20T05:38:39;6.70;99.90
8539;DHT22;4307;53.868;11.680;2023-02-20T05:41:12;6.70;99.90
8539;DHT22;4307;53.868;11.680;2023-02-20T05:43:38;6.70;99.90
8539;DHT22;4307;53.868;11.680;2023-02-20T05:46:05;6.80;99.90
8539;DHT22;4307;53.868;11.680;2023-02-20T05:48:33;6.90;99.90
8539;DHT22;4307;53.868;11.680;2023-02-20T05:51:00;6.90;99.90
8539;DHT22;4307;53.868;11.680;2023-02-20T05:53:27;6.90;99.90
8539;DHT22;4307;53.868;11.680;2023-02-20T05:55:54;7.00;99.90
8539;DHT22;4307;53.868;11.680;2023-02-20T05:58:21;7.00;99.90
8539;DHT22;4307;53.868;11.680;2023-02-20T06:00:47;7.00;99.90
8539;DHT22;4307;53.868;11.680;2023-02-20T06:03:15;7.10;99.90
8539;DHT22;4307;53.868;11.680;2023-02-20T06:05:43;7.10;99.90
8539;DHT22;4307;53.868;11.680;2023-02-20T06:08:10;7.10;99.90
8539;DHT22;4307;53.868;11.680;2023-02-20T06:10:36;7.20;99.90
8539;DHT22;4307;53.868;11.680;2023-02-20T06:13:03;7.20;99.90
8539;DHT22;4307;53.868;11.680;2023-02-20T06:15:30;7.20;99.90
8539;DHT22;4307;53.868;11.680;2023-02-20T06:17:56;7.20;99.90
8539;DHT22;4307;53.868;11.680;2023-02-20T06:20:23;7.30;99.90
8539;DHT22;4307;53.868;11.680;2023-02-20T06:22:51;7.30;99.90
8539;DHT22;4307;53.868;11.680;2023-02-20T06:25:17;7.30;99.90
8539;DHT22;4307;53.868;11.680;2023-02-20T06:27:44;7.30;99.90
8539;DHT22;4307;53.868;11.680;2023-02-20T06:30:12;7.30;99.90
8539;DHT22;4307;53.868;11.680;2023-02-20T06:32:38;7.40;99.90
8539;DHT22;4307;53.868;11.680;2023-02-20T06:35:06;7.40;99.90
8539;DHT22;4307;53.868;11.680;2023-02-20T06:37:33;7.40;99.90
8539;DHT22;4307;53.868;11.680;2023-02-20T06:40:03;7.40;99.90
8539;DHT22;4307;53.868;11.680;2023-02-20T06:42:29;7.40;99.90
8539;DHT22;4307;53.868;11.680;2023-02-20T06:44:56;7.40;99.90
8539;DHT22;4307;53.868;11.680;2023-02-20T06:47:22;7.40;99.90
8539;DHT22;4307;53.868;11.680;2023-02-20T06:49:49;7.40;99.90
8539;DHT22;4307;53.868;11.680;2023-02-20T06:52:16;7.40;99.90
8539;DHT22;4307;53.868;11.680;2023-02-20T06:54:43;7.40;99.90
8539;DHT22;4307;53.868;11.680;2023-02-20T06:57:11;7.50;99.90
8539;DHT22;4307;53.868;11.680;2023-02-20T06:59:37;7.50;99.90
8539;DHT22;4307;53.868;11.680;2023-02-20T07:02:06;7.50;99.90
8539;DHT22;4307;53.868;11.680;2023-02-20T07:04:36;7.50;99.90
8539;DHT22;4307;53.868;11.680;2023-02-20T07:07:02;7.60;99.90
8539;DHT22;4307;53.868;11.680;2023-02-20T07:09:29;7.60;99.90
8539;DHT22;4307;53.868;11.680;2023-02-20T07:11:56;7.60;99.90
8539;DHT22;4307;53.868;11.680;2023-02-20T07:14:24;7.60;99.90
8539;DHT22;4307;53.868;11.680;2023-02-20T07:16:51;7.60;99.90
8539;DHT22;4307;53.868;11.680;2023-02-20T07:19:17;7.60;99.90
8539;DHT22;4307;53.868;11.680;2023-02-20T07:21:45;7.60;99.90
8539;DHT22;4307;53.868;11.680;2023-02-20T07:24:12;7.70;99.90
8539;DHT22;4307;53.868;11.680;2023-02-20T07:26:38;7.70;99.90
8539;DHT22;4307;53.868;11.680;2023-02-20T07:29:06;7.80;99.90
8539;DHT22;4307;53.868;11.680;2023-02-20T07:31:34;7.80;99.90
8539;DHT22;4307;53.868;11.680;2023-02-20T07:34:01;7.80;99.90
8539;DHT22;4307;53.868;11.680;2023-02-20T07:36:27;7.80;99.90
8539;DHT22;4307;53.868;11.680;2023-02-20T07:38:55;7.90;99.90
8539;DHT22;4307;53.868;11.680;2023-02-20T07:41:22;7.90;99.90
8539;DHT22;4307;53.868;11.680;2023-02-20T07:43:49;7.90;99.90
8539;DHT22;4307;53.868;11.680;2023-02-20T07:46:16;8.00;99.90
8539;DHT22;4307;53.868;11.680;2023-02-20T07:48:44;8.00;99.90
8539;DHT22;4307;53.868;11.680;2023-02-20T07:51:11;8.10;99.90
8539;DHT22;4307;53.868;11.680;2023-02-20T07:53:37;8.10;99.90
8539;DHT22;4307;53.868;11.680;2023-02-20T07:56:04;8.20;99.90
8539;DHT22;4307;53.868;11.680;2023-02-20T07:58:31;8.20;99.90
8539;DHT22;4307;53.868;11.680;2023-02-20T08:00:58;8.20;99.90
8539;DHT22;4307;53.868;11.680;2023-02-20T08:03:24;8.20;99.90
8539;DHT22;4307;53.868;11.680;2023-02-20T08:05:52;8.30;99.90
8539;DHT22;4307;53.868;11.680;2023-02-20T08:08:19;8.30;99.90
8539;DHT22;4307;53.868;11.680;2023-02-20T08:10:49;8.40;99.90
8539;DHT22;4307;53.868;11.680;2023-02-20T08:13:16;8.40;99.90
8539;DHT22;4307;53.868;11.680;2023-02-20T08:15:42;8.40;99.90
8539;DHT22;4307;53.868;11.680;2023-02-20T08:18:10;8.40;99.90
8539;DHT22;4307;53.868;11.680;2023-02-20T08:20:37;8.50;99.90
8539;DHT22;4307;53.868;11.680;2023-02-20T08:23:05;8.50;99.90
8539;DHT22;4307;53.868;11.680;2023-02-20T08:25:32;8.50;99.90
8539;DHT22;4307;53.868;11.680;2023-02-20T08:27:59;8.60;99.90
8539;DHT22;4307;53.868;11.680;2023-02-20T08:30:27;8.60;99.90
8539;DHT22;4307;53.868;11.680;2023-02-20T08:32:54;8.70;99.90
8539;DHT22;4307;53.868;11.680;2023-02-20T08:35:22;8.70;99.90
8539;DHT22;4307;53.868;11.680;2023-02-20T08:37:49;8.70;99.90
8539;DHT22;4307;53.868;11.680;2023-02-20T08:40:18;8.70;99.90
8539;DHT22;4307;53.868;11.680;2023-02-20T08:42:44;8.70;99.90
8539;DHT22;4307;53.868;11.680;2023-02-20T08:45:14;8.80;99.90
8539;DHT22;4307;53.868;11.680;2023-02-20T08:47:41;8.80;99.90
8539;DHT22;4307;53.868;11.680;2023-02-20T08:50:08;8.80;99.90
8539;DHT22;4307;53.868;11.680;2023-02-20T08:52:34;8.80;99.90
8539;DHT22;4307;53.868;11.680;2023-02-20T08:55:01;8.80;99.90
8539;DHT22;4307;53.868;11.680;2023-02-20T08:57:29;8.80;99.90
8539;DHT22;4307;53.868;11.680;2023-02-20T08:59:56;8.80;99.90
8539;DHT22;4307;53.868;11.680;2023-02-20T09:02:23;8.80;99.90
8539;DHT22;4307;53.868;11.680;2023-02-20T09:04:53;8.90;99.90
8539;DHT22;4307;53.868;11.680;2023-02-20T09:07:20;8.90;99.90
8539;DHT22;4307;53.868;11.680;2023-02-20T09:09:47;8.90;99.90
8539;DHT22;4307;53.868;11.680;2023-02-20T09:12:15;8.90;99.90
8539;DHT22;4307;53.868;11.680;2023-02-20T09:14:43;8.90;99.90
8539;DHT22;4307;53.868;11.680;2023-02-20T09:17:10;8.90;99.90
8539;DHT22;4307;53.868;11.680;2023-02-20T09:19:37;8.90;99.90
8539;DHT22;4307;53.868;11.680;2023-02-20T09:22:03;8.90;99.90
8539;DHT22;4307;53.868;11.680;2023-02-20T09:24:30;8.90;99.90
8539;DHT22;4307;53.868;11.680;2023-02-20T09:26:58;9.00;99.90
8539;DHT22;4307;53.868;11.680;2023-02-20T09:29:25;8.90;99.90
8539;DHT22;4307;53.868;11.680;2023-02-20T09:31:54;9.00;99.90
8539;DHT22;4307;53.868;11.680;2023-02-20T09:34:20;9.00;99.90
8539;DHT22;4307;53.868;11.680;2023-02-20T09:36:47;9.00;99.90
8539;DHT22;4307;53.868;11.680;2023-02-20T09:39:14;9.00;99.90
8539;DHT22;4307;53.868;11.680;2023-02-20T09:41:52;9.00;99.90
8539;DHT22;4307;53.868;11.680;2023-02-20T09:44:28;9.00;99.90
8539;DHT22;4307;53.868;11.680;2023-02-20T09:47:01;9.10;99.90
8539;DHT22;4307;53.868;11.680;2023-02-20T09:49:31;9.10;99.90
8539;DHT22;4307;53.868;11.680;2023-02-20T09:52:02;9.10;99.90
8539;DHT22;4307;53.868;11.680;2023-02-20T09:54:32;9.10;99.90
8539;DHT22;4307;53.868;11.680;2023-02-20T09:57:02;9.10;99.90
8539;DHT22;4307;53.868;11.680;2023-02-20T09:59:33;9.10;99.90
8539;DHT22;4307;53.868;11.680;2023-02-20T10:02:13;9.10;99.90
8539;DHT22;4307;53.868;11.680;2023-02-20T10:04:43;9.10;99.90
8539;DHT22;4307;53.868;11.680;2023-02-20T10:07:15;9.10;99.90
8539;DHT22;4307;53.868;11.680;2023-02-20T10:09:45;9.10;99.90
8539;DHT22;4307;53.868;11.680;2023-02-20T10:12:18;9.10;99.90
8539;DHT22;4307;53.868;11.680;2023-02-20T10:15:07;9.10;99.90
8539;DHT22;4307;53.868;11.680;2023-02-20T10:17:46;9.10;99.90
8539;DHT22;4307;53.868;11.680;2023-02-20T10:20:21;9.10;99.90
8539;DHT22;4307;53.868;11.680;2023-02-20T10:22:57;9.00;99.90
8539;DHT22;4307;53.868;11.680;2023-02-20T10:25:29;9.00;99.90
8539;DHT22;4307;53.868;11.680;2023-02-20T10:28:02;9.00;99.90
8539;DHT22;4307;53.868;11.680;2023-02-20T10:30:32;9.00;99.90
8539;DHT22;4307;53.868;11.680;2023-02-20T10:33:09;9.00;99.90
8539;DHT22;4307;53.868;11.680;2023-02-20T10:35:43;9.00;99.90
8539;DHT22;4307;53.868;11.680;2023-02-20T10:38:14;8.90;99.90
8539;DHT22;4307;53.868;11.680;2023-02-20T10:40:45;8.90;99.90
8539;DHT22;4307;53.868;11.680;2023-02-20T10:43:17;8.90;99.90
8539;DHT22;4307;53.868;11.680;2023-02-20T10:45:52;8.90;99.90
8539;DHT22;4307;53.868;11.680;2023-02-20T10:48:26;8.80;99.90
8539;DHT22;4307;53.868;11.680;2023-02-20T10:51:03;8.80;99.90
8539;DHT22;4307;53.868;11.680;2023-02-20T10:53:36;8.80;99.90
8539;DHT22;4307;53.868;11.680;2023-02-20T10:56:07;8.80;99.90
8539;DHT22;4307;53.868;11.680;2023-02-20T10:58:40;8.80;99.90
8539;DHT22;4307;53.868;11.680;2023-02-20T11:01:10;8.80;99.90
8539;DHT22;4307;53.868;11.680;2023-02-20T11:03:43;8.80;99.90
8539;DHT22;4307;53.868;11.680;2023-02-20T11:06:14;8.80;99.90
8539;DHT22;4307;53.868;11.680;2023-02-20T11:08:41;8.80;99.90
8539;DHT22;4307;53.868;11.680;2023-02-20T11:11:28;8.80;99.90
8539;DHT22;4307;53.868;11.680;2023-02-20T11:13:57;8.80;99.90
8539;DHT22;4307;53.868;11.680;2023-02-20T11:16:28;8.80;99.90
8539;DHT22;4307;53.868;11.680;2023-02-20T11:19:09;8.90;99.90
8539;DHT22;4307;53.868;11.680;2023-02-20T11:21:40;8.90;99.90
8539;DHT22;4307;53.868;11.680;2023-02-20T11:27:05;9.00;99.90
8539;DHT22;4307;53.868;11.680;2023-02-20T11:29:50;9.00;99.90
8539;DHT22;4307;53.868;11.680;2023-02-20T11:32:30;9.00;99.90
8539;DHT22;4307;53.868;11.680;2023-02-20T11:35:11;9.10;99.90
8539;DHT22;4307;53.868;11.680;2023-02-20T11:37:40;9.10;99.90
8539;DHT22;4307;53.868;11.680;2023-02-20T11:40:14;9.20;99.90
8539;DHT22;4307;53.868;11.680;2023-02-20T11:42:41;9.20;99.90
8539;DHT22;4307;53.868;11.680;2023-02-20T11:45:14;9.30;99.90
8539;DHT22;4307;53.868;11.680;2023-02-20T11:47:41;9.30;99.90
8539;DHT22;4307;53.868;11.680;2023-02-20T11:50:13;9.40;99.90
8539;DHT22;4307;53.868;11.680;2023-02-20T11:52:55;9.40;99.90
8539;DHT22;4307;53.868;11.680;2023-02-20T11:55:23;9.50;99.90
8539;DHT22;4307;53.868;11.680;2023-02-20T11:57:51;9.50;99.90
8539;DHT22;4307;53.868;11.680;2023-02-20T12:00:20;9.60;99.90
8539;DHT22;4307;53.868;11.680;2023-02-20T12:02:49;9.60;99.90
8539;DHT22;4307;53.868;11.680;2023-02-20T12:05:18;9.70;99.90
8539;DHT22;4307;53.868;11.680;2023-02-20T12:07:54;9.70;99.90
8539;DHT22;4307;53.868;11.680;2023-02-20T12:10:26;9.80;99.90
8539;DHT22;4307;53.868;11.680;2023-02-20T12:12:54;9.80;99.90
8539;DHT22;4307;53.868;11.680;2023-02-20T12:15:22;9.90;99.90
8539;DHT22;4307;53.868;11.680;2023-02-20T12:18:03;10.00;99.90
8539;DHT22;4307;53.868;11.680;2023-02-20T12:20:36;10.10;99.90
8539;DHT22;4307;53.868;11.680;2023-02-20T12:23:15;10.10;99.90
8539;DHT22;4307;53.868;11.680;2023-02-20T12:25:54;10.20;99.90
8539;DHT22;4307;53.868;11.680;2023-02-20T12:28:31;10.20;99.90
8539;DHT22;4307;53.868;11.680;2023-02-20T12:31:13;10.30;99.90
8539;DHT22;4307;53.868;11.680;2023-02-20T12:33:53;10.30;99.90
8539;DHT22;4307;53.868;11.680;2023-02-20T12:36:30;10.30;99.90
8539;DHT22;4307;53.868;11.680;2023-02-20T12:38:58;10.40;99.90
8539;DHT22;4307;53.868;11.680;2023-02-20T12:41:46;10.40;99.90
8539;DHT22;4307;53.868;11.680;2023-02-20T12:44:30;10.40;99.90
8539;DHT22;4307;53.868;11.680;2023-02-20T12:47:04;10.50;99.90
8539;DHT22;4307;53.868;11.680;2023-02-20T12:49:57;10.50;99.90
8539;DHT22;4307;53.868;11.680;2023-02-20T12:52:39;10.60;99.90
8539;DHT22;4307;53.868;11.680;2023-02-20T12:55:18;10.60;99.90
8539;DHT22;4307;53.868;11.680;2023-02-20T12:57:52;10.60;99.90
8539;DHT22;4307;53.868;11.680;2023-02-20T13:00:30;10.70;99.90
8539;DHT22;4307;53.868;11.680;2023-02-20T13:03:02;10.70;99.90
8539;DHT22;4307;53.868;11.680;2023-02-20T13:05:32;10.70;99.90
8539;DHT22;4307;53.868;11.680;2023-02-20T13:08:06;10.70;99.90
8539;DHT22;4307;53.868;11.680;2023-02-20T13:10:44;10.70;99.90
8539;DHT22;4307;53.868;11.680;2023-02-20T13:13:12;10.70;99.90
8539;DHT22;4307;53.868;11.680;2023-02-20T13:15:47;10.70;99.90
8539;DHT22;4307;53.868;11.680;2023-02-20T13:18:21;10.70;99.90
8539;DHT22;4307;53.868;11.680;2023-02-20T13:20:51;10.60;99.90
8539;DHT22;4307;53.868;11.680;2023-02-20T13:23:31;10.60;99.90
8539;DHT22;4307;53.868;11.680;2023-02-20T13:25:58;10.60;99.90
8539;DHT22;4307;53.868;11.680;2023-02-20T13:28:37;10.50;99.90
8539;DHT22;4307;53.868;11.680;2023-02-20T13:31:13;10.50;99.90
8539;DHT22;4307;53.868;11.680;2023-02-20T13:33:42;10.40;99.90
8539;DHT22;4307;53.868;11.680;2023-02-20T13:36:40;10.40;99.90
8539;DHT22;4307;53.868;11.680;2023-02-20T13:39:38;10.30;99.90
8539;DHT22;4307;53.868;11.680;2023-02-20T13:42:35;10.30;99.90
8539;DHT22;4307;53.868;11.680;2023-02-20T13:45:33;10.30;99.90
8539;DHT22;4307;53.868;11.680;2023-02-20T13:48:16;10.20;99.90
8539;DHT22;4307;53.868;11.680;2023-02-20T13:50:43;10.20;99.90
8539;DHT22;4307;53.868;11.680;2023-02-20T13:53:10;10.20;99.90
8539;DHT22;4307;53.868;11.680;2023-02-20T13:55:37;10.10;99.90
8539;DHT22;4307;53.868;11.680;2023-02-20T13:58:14;10.10;99.90
8539;DHT22;4307;53.868;11.680;2023-02-20T14:00:48;10.10;99.90
8539;DHT22;4307;53.868;11.680;2023-02-20T14:03:23;10.10;99.90
8539;DHT22;4307;53.868;11.680;2023-02-20T14:06:06;10.10;99.90
8539;DHT22;4307;53.868;11.680;2023-02-20T14:08:34;10.00;99.90
8539;DHT22;4307;53.868;11.680;2023-02-20T14:11:06;10.00;99.90
8539;DHT22;4307;53.868;11.680;2023-02-20T14:13:33;10.00;99.90
8539;DHT22;4307;53.868;11.680;2023-02-20T14:16:00;10.00;99.90
8539;DHT22;4307;53.868;11.680;2023-02-20T14:18:30;10.00;99.90
8539;DHT22;4307;53.868;11.680;2023-02-20T14:21:06;10.00;99.90
8539;DHT22;4307;53.868;11.680;2023-02-20T14:23:34;9.90;99.90
8539;DHT22;4307;53.868;11.680;2023-02-20T14:26:04;9.90;99.90
8539;DHT22;4307;53.868;11.680;2023-02-20T14:28:33;9.90;99.90
8539;DHT22;4307;53.868;11.680;2023-02-20T14:31:09;9.90;99.90
8539;DHT22;4307;53.868;11.680;2023-02-20T14:33:45;9.90;99.90
8539;DHT22;4307;53.868;11.680;2023-02-20T14:36:49;9.90;99.90
8539;DHT22;4307;53.868;11.680;2023-02-20T14:39:41;9.90;99.90
8539;DHT22;4307;53.868;11.680;2023-02-20T14:42:14;9.90;99.90
8539;DHT22;4307;53.868;11.680;2023-02-20T14:44:41;9.90;99.90
8539;DHT22;4307;53.868;11.680;2023-02-20T14:47:10;9.90;99.90
8539;DHT22;4307;53.868;11.680;2023-02-20T14:49:41;9.80;99.90
8539;DHT22;4307;53.868;11.680;2023-02-20T14:52:13;9.80;99.90
8539;DHT22;4307;53.868;11.680;2023-02-20T14:54:48;9.80;99.90
8539;DHT22;4307;53.868;11.680;2023-02-20T14:57:21;9.80;99.90
8539;DHT22;4307;53.868;11.680;2023-02-20T14:59:47;9.90;99.90
8539;DHT22;4307;53.868;11.680;2023-02-20T15:02:17;9.90;99.90
8539;DHT22;4307;53.868;11.680;2023-02-20T15:04:49;9.80;99.90
8539;DHT22;4307;53.868;11.680;2023-02-20T15:07:18;9.80;99.90
8539;DHT22;4307;53.868;11.680;2023-02-20T15:09:46;9.90;99.90
8539;DHT22;4307;53.868;11.680;2023-02-20T15:12:22;9.80;99.90
8539;DHT22;4307;53.868;11.680;2023-02-20T15:14:54;9.80;99.90
8539;DHT22;4307;53.868;11.680;2023-02-20T15:17:24;9.90;99.90
8539;DHT22;4307;53.868;11.680;2023-02-20T15:19:53;9.80;99.90
8539;DHT22;4307;53.868;11.680;2023-02-20T15:22:26;9.80;99.90
8539;DHT22;4307;53.868;11.680;2023-02-20T15:24:53;9.80;99.90
8539;DHT22;4307;53.868;11.680;2023-02-20T15:27:21;9.80;99.90
8539;DHT22;4307;53.868;11.680;2023-02-20T15:30:10;9.80;99.90
8539;DHT22;4307;53.868;11.680;2023-02-20T15:32:39;9.80;99.90
8539;DHT22;4307;53.868;11.680;2023-02-20T15:35:14;9.80;99.90
8539;DHT22;4307;53.868;11.680;2023-02-20T15:37:43;9.80;99.90
8539;DHT22;4307;53.868;11.680;2023-02-20T15:40:18;9.80;99.90
8539;DHT22;4307;53.868;11.680;2023-02-20T15:42:45;9.80;99.90
8539;DHT22;4307;53.868;11.680;2023-02-20T15:45:14;9.80;99.90
8539;DHT22;4307;53.868;11.680;2023-02-20T15:47:41;9.80;99.90
8539;DHT22;4307;53.868;11.680;2023-02-20T15:50:08;9.80;99.90
8539;DHT22;4307;53.868;11.680;2023-02-20T15:52:36;9.80;99.90
8539;DHT22;4307;53.868;11.680;2023-02-20T15:55:03;9.80;99.90
8539;DHT22;4307;53.868;11.680;2023-02-20T15:57:30;9.80;99.90
8539;DHT22;4307;53.868;11.680;2023-02-20T15:59:56;9.80;99.90
8539;DHT22;4307;53.868;11.680;2023-02-20T16:02:23;9.80;99.90
8539;DHT22;4307;53.868;11.680;2023-02-20T16:04:50;9.80;99.90
8539;DHT22;4307;53.868;11.680;2023-02-20T16:07:18;9.80;99.90
8539;DHT22;4307;53.868;11.680;2023-02-20T16:09:46;9.80;99.90
8539;DHT22;4307;53.868;11.680;2023-02-20T16:12:19;9.80;99.90
8539;DHT22;4307;53.868;11.680;2023-02-20T16:14:47;9.80;99.90
8539;DHT22;4307;53.868;11.680;2023-02-20T16:17:22;9.80;99.90
8539;DHT22;4307;53.868;11.680;2023-02-20T16:19:49;9.80;99.90
8539;DHT22;4307;53.868;11.680;2023-02-20T16:22:17;9.80;99.90
8539;DHT22;4307;53.868;11.680;2023-02-20T16:24:46;9.80;99.90
8539;DHT22;4307;53.868;11.680;2023-02-20T16:27:18;9.80;99.90
8539;DHT22;4307;53.868;11.680;2023-02-20T16:29:46;9.90;99.90
8539;DHT22;4307;53.868;11.680;2023-02-20T16:32:22;9.80;99.90